Nearby METAR Reports

 

KAVP - Avoca/Wilkes B., Pennsylvania, USA
Distance from station: SW 13mi, 22km
Updated: Sat, 24-Feb-2018 04:54 EST
Fog, Overcast
Fog, Overcast
 Wind from calm
Wind: Calm
Temperature: 39°F , 4°C
Dew Point: 39°F , 4°C
Humidity: 100%
Barometer: 30.15 inHg , 1021 hPa
Summary: Fog
Clouds: Overcast
Visibility: 1/4 mile , 2 km
Cloud details: Overcast 200 ft
2018/02/24 09:54 KAVP 240954Z 00000KT 1/4SM R04/1400V1600FT FG VV002 04/04 A3015 RMK AO2 SLP215 T00440044
KMPO - Mt. Pocono, Pennsylvania, USA
Distance from station: SSE 26mi, 43km
Updated: Sat, 24-Feb-2018 04:53 EST
Mist, Overcast
Mist, Overcast
 Wind from W
Wind: W 8 mph , 13 km/h
Temperature: 39°F , 4°C
Wind Chill: 33°F , 1°C
Dew Point: 39°F , 4°C
Humidity: 100%
Barometer: 30.11 inHg , 1019.6 hPa
Summary: Mist
Clouds: Overcast
Visibility: 1 1/2 miles , 2 km
Cloud details: Overcast 200 ft
2018/02/24 09:53 KMPO 240953Z AUTO 28007KT 1 1/2SM BR OVC002 04/04 A3011 RMK AO2 SLP213 T00390039
KMSV - Monticello, New York, USA
Distance from station: ENE 43mi, 69km
Updated: Sat, 24-Feb-2018 04:56 EST
Light rain, Fog, Overcast
Light rain, Fog, Overcast
 Wind from W
Wind: W 6 mph , 9 km/h
Temperature: 34°F , 1°C
Wind Chill: 29°F , -2°C
Dew Point: 34°F , 1°C
Humidity: 100%
Barometer: 30.13 inHg , 1020.3 hPa
Summary: Light rain, Fog
Clouds: Overcast
Visibility: 1/2 mile , 2 km
Cloud details: Overcast 200 ft
2018/02/24 09:56 KMSV 240956Z AUTO 27005KT 1/2SM -RA FG OVC002 01/01 A3013 RMK AO2 SLPNO P0000 T00110011 FZRANO RVRNO
 
KFWN - Sussex, New Jersey, USA
Distance from station: ESE 52mi, 84km
Updated: Sat, 24-Feb-2018 04:53 EST
Mist, Overcast
Mist, Overcast
 Wind from SSW
Wind: SSW 7 mph , 11 km/h
Temperature: 39°F , 4°C
Wind Chill: 34°F , 1°C
Dew Point: 39°F , 4°C
Humidity: 100%
Barometer: 30.15 inHg , 1021 hPa
Summary: Mist
Clouds: Overcast
Visibility: 4 miles , 6 km
Cloud details: Overcast 300 ft
2018/02/24 09:53 KFWN 240953Z AUTO 21006KT 4SM BR OVC003 04/04 A3015 RMK AO2 SLP212 T00440044
K12N - Andover, New Jersey, USA
Distance from station: SE 54mi, 87km
Updated: Sat, 24-Feb-2018 04:54 EST

 Wind from varies
Wind: varies 3 mph , 6 km/h
Temperature: 39°F , 4°C
Dew Point: 39°F , 4°C
Humidity: 100%
Barometer: 30.15 inHg , 1021 hPa
2018/02/24 09:54 K12N 240954Z AUTO VRB03KT 04/04 A3015 RMK AO1 SLP218 T00440044
KBGM - Binghamton, New York, USA
Distance from station: NNW 55mi, 88km
Updated: Sat, 24-Feb-2018 04:53 EST
Mist, Mostly cloudy
Mist, Mostly cloudy
 Wind from NNW
Wind: NNW 7 mph , 11 km/h
Temperature: 39°F , 4°C
Wind Chill: 34°F , 1°C
Dew Point: 37°F , 3°C
Humidity: 93%
Barometer: 30.12 inHg , 1020 hPa
Summary: Mist
Clouds: Mostly cloudy
Visibility: 6 miles , 10 km
Cloud details: Mostly cloudy 2800 ft
2018/02/24 09:53 KBGM 240953Z AUTO 33006KT 6SM BR BKN028 04/03 A3012 RMK AO2 SLP214 T00390033
 
KABE - Allentown, Pennsylvania, USA
Distance from station: S 58mi, 94km
Updated: Sat, 24-Feb-2018 04:51 EST
Mist, Overcast
Mist, Overcast
 Wind from SW
Wind: SW 7 mph , 11 km/h
Temperature: 43°F , 6°C
Wind Chill: 39°F , 4°C
Dew Point: 39°F , 4°C
Humidity: 87%
Barometer: 30.16 inHg , 1021.3 hPa
Summary: Mist
Clouds: Overcast
Visibility: 2 1/2 miles , 2 km
Cloud details: Partly cloudy 500 ft
Overcast 1100 ft
2018/02/24 09:51 KABE 240951Z 22006KT 2 1/2SM BR SCT005 OVC011 06/04 A3016 RMK AO2 SFC VIS 4 SLP217 T00560039
KXLL - Allentown Queen, Pennsylvania, USA
Distance from station: S 64mi, 103km
Updated: Sat, 24-Feb-2018 04:55 EST
Mist, Overcast
Mist, Overcast
 Wind from SW
Wind: SW 3 mph , 6 km/h
Temperature: 43°F , 6°C
Dew Point: 43°F , 6°C
Humidity: 100%
Barometer: 30.18 inHg , 1022 hPa
Summary: Mist
Clouds: Overcast
Visibility: 2 miles , 3 km
Cloud details: Overcast 200 ft
2018/02/24 09:55 KXLL 240955Z AUTO 23003KT 2SM BR OVC002 06/06 A3018 RMK AO2
KMGJ - Montgomery, New York, USA
Distance from station: E 67mi, 108km
Updated: Sat, 24-Feb-2018 04:54 EST
Mostly cloudy
Mostly cloudy
 Wind from SW
Wind: SW 8 mph , 13 km/h
Temperature: 39°F , 4°C
Wind Chill: 33°F , 1°C
Dew Point: 37°F , 3°C
Humidity: 93%
Barometer: 30.13 inHg , 1020.3 hPa
Clouds: Mostly cloudy
Visibility: 7 miles , 11 km
Cloud details: Mostly cloudy 1500 ft
2018/02/24 09:54 KMGJ 240954Z AUTO 22007KT 7SM BKN015 04/03 A3013 RMK AO2 SLP205 T00390033
 
KIPT - Williamsport, Pennsylvania, USA
Distance from station: WSW 72mi, 116km
Updated: Sat, 24-Feb-2018 04:54 EST
Fog, Overcast
Fog, Overcast
 Wind from calm
Wind: Calm
Temperature: 39°F , 4°C
Dew Point: 39°F , 4°C
Humidity: 100%
Barometer: 30.18 inHg , 1022 hPa
Summary: Fog
Clouds: Overcast
Visibility: 1/4 mile , 2 km
Cloud details: Overcast 200 ft
2018/02/24 09:54 KIPT 240954Z AUTO 00000KT 1/4SM FG VV002 04/04 A3018 RMK AO2 SLP222 T00440044
KUKT - Quakertown Arp, Pennsylvania, USA
Distance from station: S 74mi, 119km
Updated: Sat, 24-Feb-2018 04:55 EST
Mist, Overcast
Mist, Overcast
 Wind from calm
Wind: Calm
Temperature: 43°F , 6°C
Dew Point: 43°F , 6°C
Humidity: 100%
Barometer: 30.17 inHg , 1021.7 hPa
Summary: Mist
Clouds: Overcast
Visibility: 3 miles , 5 km
Cloud details: Few Clouds 200 ft
Mostly cloudy 500 ft
Overcast 1900 ft
2018/02/24 09:55 KUKT 240955Z AUTO 00000KT 3SM BR FEW002 BKN005 OVC019 06/06 A3017 RMK A01
KSMQ - Somerville, New Jersey, USA
Distance from station: SE 76mi, 123km
Updated: Sat, 24-Feb-2018 04:53 EST
Mist, Overcast
Mist, Overcast
 Wind from calm
Wind: Calm
Temperature: 43°F , 6°C
Dew Point: 43°F , 6°C
Humidity: 100%
Barometer: 30.15 inHg , 1021 hPa
Summary: Mist
Clouds: Overcast
Visibility: 6 miles , 10 km
Cloud details: Overcast 1500 ft
2018/02/24 09:53 KSMQ 240953Z AUTO 00000KT 6SM BR OVC015 06/06 A3015 RMK AO2 SLP211 T00560056
 
KSWF - Newburgh/Stewart, New York, USA
Distance from station: E 77mi, 123km
Updated: Sat, 24-Feb-2018 03:45 EST
NOT Current
Overcast
Overcast
 Wind from W
Wind: W 7 mph , 11 km/h
Temperature: 39°F , 4°C
Wind Chill: 34°F , 1°C
Dew Point: 39°F , 4°C
Humidity: 100%
Barometer: 30.13 inHg , 1020.3 hPa
Clouds: Overcast
Visibility: 10 miles , 16 km
Cloud details: Overcast 1200 ft
2018/02/24 08:45 KSWF 240845Z 28006KT 10SM OVC012 04/04 A3013
KMMU - Morristown Muni, New Jersey, USA
Distance from station: SE 77mi, 124km
Updated: Sat, 24-Feb-2018 04:55 EST
Mostly cloudy
Mostly cloudy
 Wind from WSW
Wind: WSW 5 mph , 7 km/h
Temperature: 43°F , 6°C
Wind Chill: 40°F , 4°C
Dew Point: 43°F , 6°C
Humidity: 100%
Barometer: 30.16 inHg , 1021.3 hPa
Clouds: Mostly cloudy
Visibility: 7 miles , 11 km
Cloud details: Mostly cloudy 1000 ft
2018/02/24 09:55 KMMU 240955Z AUTO 25004KT 7SM BKN010 06/06 A3016 RMK AO2
KCDW - Caldwell, New Jersey, USA
Distance from station: ESE 79mi, 127km
Updated: Sat, 24-Feb-2018 05:01 EST
Mist, Mostly cloudy
Mist, Mostly cloudy
 Wind from calm
Wind: Calm
Temperature: 41°F , 5°C
Dew Point: 41°F , 5°C
Humidity: 100%
Barometer: 30.16 inHg , 1021.3 hPa
Summary: Mist
Clouds: Mostly cloudy
Visibility: 6 miles , 10 km
Cloud details: Mostly cloudy 1200 ft
2018/02/24 10:01 KCDW 241001Z AUTO 00000KT 6SM BR BKN012 05/05 A3016 RMK AO2 T00500050 TSNO
 
KRDG - Reading, Pennsylvania, USA
Distance from station: SSW 80mi, 130km
Updated: Sat, 24-Feb-2018 05:01 EST
Mist, Overcast
Mist, Overcast
 Wind from calm
Wind: Calm
Temperature: 43°F , 6°C
Dew Point: 43°F , 6°C
Humidity: 100%
Barometer: 30.17 inHg , 1021.7 hPa
Summary: Mist
Clouds: Overcast
Visibility: 3 miles , 5 km
Cloud details: Overcast 200 ft
2018/02/24 10:01 KRDG 241001Z AUTO 00000KT 3SM BR OVC002 06/06 A3017 RMK AO2 T00610061
KITH - Ithaca/Tompkins, New York, USA
Distance from station: NW 81mi, 131km
Updated: Sat, 24-Feb-2018 04:56 EST
Mist, Overcast
Mist, Overcast
 Wind from calm
Wind: Calm
Temperature: 41°F , 5°C
Dew Point: 39°F , 4°C
Humidity: 93%
Barometer: 30.17 inHg , 1021.7 hPa
Summary: Mist
Clouds: Overcast
Visibility: 3/4 mile , 5 km
Cloud details: Overcast 200 ft
2018/02/24 09:56 KITH 240956Z AUTO 00000KT 3/4SM R32/3500V6000FT BR OVC002 05/04 A3017 RMK AO2 SLP225 T00500044
KSEG - Selinsgrove, Pennsylvania, USA
Distance from station: SW 82mi, 132km
Updated: Sat, 24-Feb-2018 04:53 EST
Fog, Overcast
Fog, Overcast
 Wind from calm
Wind: Calm
Temperature: 41°F , 5°C
Dew Point: 41°F , 5°C
Humidity: 100%
Barometer: 30.19 inHg , 1022.4 hPa
Summary: Fog
Clouds: Overcast
Visibility: 1/2 mile , 2 km
Cloud details: Overcast 200 ft
2018/02/24 09:53 KSEG 240953Z AUTO 00000KT 1/2SM FG VV002 05/05 A3019 RMK AO2 SLP225 T00500050
 
KELM - Elmira, New York, USA
Distance from station: WNW 82mi, 133km
Updated: Sat, 24-Feb-2018 04:53 EST
Overcast
Overcast
 Wind from calm
Wind: Calm
Temperature: 36°F , 2°C
Dew Point: 36°F , 2°C
Humidity: 100%
Barometer: 30.17 inHg , 1021.7 hPa
Clouds: Overcast
Visibility: 7 miles , 11 km
Cloud details: Overcast 3400 ft
2018/02/24 09:53 KELM 240953Z AUTO 00000KT 7SM OVC034 02/02 A3017 RMK AO2 SLP225 T00220017
KDYL - Doylestown, Pennsylvania, USA
Distance from station: SSE 83mi, 134km
Updated: Sat, 24-Feb-2018 04:54 EST
Mist, Overcast
Mist, Overcast
 Wind from WSW
Wind: WSW 5 mph , 7 km/h
Temperature: 43°F , 6°C
Wind Chill: 40°F , 4°C
Dew Point: 43°F , 6°C
Humidity: 100%
Barometer: 30.16 inHg , 1021.3 hPa
Summary: Mist
Clouds: Overcast
Visibility: 6 miles , 10 km
Cloud details: Overcast 200 ft
2018/02/24 09:54 KDYL 240954Z AUTO 24004KT 6SM BR OVC002 06/06 A3016 RMK AO2 SLP219 T00560056